Time;durP1;ratioP1;P1;durP2;ratioP2;P2;SDS_P1;SDS_P2;PMS_P1;PMS_P2;Temp;Humidity;BMP_temperature;BMP_pressure;BME280_temperature;BME280_humidity;BME280_pressure;Samples;Min_cycle;Max_cycle;Signal;HPM_P1;HPM_P2
2023/06/23 00:00:32;;;;;;;4.68;1.83;;;20.20;99.90;;;;;;5003497;28;20187;-44
2023/06/23 00:02:58;;;;;;;2.97;2.00;;;20.30;99.90;;;;;;4989283;28;20215;-43
2023/06/23 00:05:28;;;;;;;3.33;1.70;;;20.30;99.90;;;;;;5008501;28;20293;-43
2023/06/23 00:07:54;;;;;;;1.75;1.65;;;20.30;99.90;;;;;;5003743;28;20211;-43
2023/06/23 00:10:20;;;;;;;1.90;1.48;;;20.30;99.90;;;;;;4994420;28;20188;-42
2023/06/23 00:12:47;;;;;;;2.75;1.42;;;20.40;99.90;;;;;;4988627;28;20176;-42
2023/06/23 00:15:14;;;;;;;1.88;1.40;;;20.30;99.90;;;;;;4992657;28;20180;-42
2023/06/23 00:17:44;;;;;;;1.70;1.60;;;20.30;99.90;;;;;;5009084;28;20210;-42
2023/06/23 00:20:12;;;;;;;2.08;1.55;;;20.30;99.90;;;;;;4987362;28;20180;-43
2023/06/23 00:22:40;;;;;;;2.67;1.55;;;20.20;99.90;;;;;;5007514;28;20266;-42
2023/06/23 00:25:09;;;;;;;1.55;1.40;;;20.10;99.90;;;;;;4993348;28;20197;-43
2023/06/23 00:27:40;;;;;;;4.43;1.60;;;20.10;99.90;;;;;;4992834;28;20195;-44
2023/06/23 00:30:06;;;;;;;2.95;1.65;;;20.10;99.90;;;;;;5024041;28;20199;-42
2023/06/23 00:32:33;;;;;;;1.75;1.50;;;20.10;99.90;;;;;;4993404;28;20319;-43
2023/06/23 00:34:59;;;;;;;1.77;1.60;;;20.10;99.90;;;;;;5018877;28;20182;-41
2023/06/23 00:37:29;;;;;;;2.38;1.80;;;20.00;99.90;;;;;;4993367;28;20191;-42
2023/06/23 00:39:55;;;;;;;2.78;1.50;;;20.00;99.90;;;;;;4993801;28;20230;-41
2023/06/23 00:42:21;;;;;;;3.17;1.85;;;20.10;99.90;;;;;;5010713;28;20290;-41
2023/06/23 00:44:47;;;;;;;3.15;1.90;;;20.10;99.90;;;;;;4996816;28;20270;-42
2023/06/23 00:47:15;;;;;;;2.40;2.20;;;20.00;99.90;;;;;;4995352;28;20223;-41
2023/06/23 00:49:41;;;;;;;2.17;1.90;;;20.10;99.90;;;;;;4993143;28;20238;-41
2023/06/23 00:52:07;;;;;;;3.40;1.67;;;20.00;99.90;;;;;;5003351;28;20189;-43
2023/06/23 00:54:35;;;;;;;2.47;1.90;;;19.90;99.90;;;;;;4995380;28;20267;-37
2023/06/23 00:57:05;;;;;;;2.30;1.98;;;19.80;99.90;;;;;;5016290;28;20204;-41
2023/06/23 00:59:31;;;;;;;2.38;1.70;;;19.80;99.90;;;;;;5009515;28;20294;-44
2023/06/23 01:02:01;;;;;;;2.20;1.98;;;19.70;99.90;;;;;;5001894;28;20207;-41
2023/06/23 01:04:29;;;;;;;1.92;1.67;;;19.70;99.90;;;;;;4994682;28;20211;-43
2023/06/23 01:07:14;;;;;;;2.45;1.70;;;19.60;99.90;;;;;;4995458;28;20309;-42
2023/06/23 01:10:02;;;;;;;2.20;1.98;;;19.60;99.90;;;;;;4993120;28;20651;-41
2023/06/23 01:12:48;;;;;;;4.57;2.17;;;19.60;99.90;;;;;;5009704;28;20188;-42
2023/06/23 01:15:32;;;;;;;3.08;1.92;;;19.50;99.90;;;;;;4994989;28;20187;-41
2023/06/23 01:18:24;;;;;;;3.72;1.70;;;19.30;99.90;;;;;;4992687;28;20223;-40
2023/06/23 01:20:50;;;;;;;1.98;1.55;;;19.20;99.90;;;;;;5009368;28;20176;-42
2023/06/23 01:23:16;;;;;;;2.95;1.60;;;19.10;99.90;;;;;;4984933;28;20180;-40
2023/06/23 01:25:55;;;;;;;1.80;1.70;;;19.10;99.90;;;;;;5009941;28;20188;-42
2023/06/23 01:28:51;;;;;;;2.33;1.90;;;19.10;99.90;;;;;;5004506;28;20203;-43
2023/06/23 01:31:33;;;;;;;2.25;2.05;;;19.10;99.90;;;;;;4996312;28;20192;-42
2023/06/23 01:34:03;;;;;;;2.10;1.90;;;19.10;99.90;;;;;;5008921;28;20183;-42
2023/06/23 01:36:42;;;;;;;2.97;2.20;;;19.20;99.90;;;;;;5011473;28;20695;-39
2023/06/23 01:39:18;;;;;;;3.45;2.35;;;19.10;99.90;;;;;;5002476;28;20242;-39
2023/06/23 01:42:02;;;;;;;3.08;2.83;;;19.20;99.90;;;;;;5001941;28;20175;-41
2023/06/23 01:44:31;;;;;;;2.85;2.65;;;19.20;99.90;;;;;;4987612;28;20195;-41
2023/06/23 01:47:02;;;;;;;3.03;2.72;;;19.20;99.90;;;;;;4987592;28;20230;-42
2023/06/23 01:49:31;;;;;;;3.58;3.10;;;19.10;99.90;;;;;;4988316;28;20184;-41
2023/06/23 01:52:01;;;;;;;3.17;2.60;;;19.10;99.90;;;;;;4986831;28;20249;-42
2023/06/23 01:54:29;;;;;;;3.25;2.95;;;19.10;99.90;;;;;;4989794;28;20222;-43
2023/06/23 01:56:55;;;;;;;3.13;2.83;;;19.00;99.90;;;;;;5006548;28;20211;-40
2023/06/23 01:59:23;;;;;;;4.05;2.90;;;19.10;99.90;;;;;;4991167;28;20261;-41
2023/06/23 02:01:50;;;;;;;3.35;2.90;;;19.10;99.90;;;;;;4985394;28;20185;-42
2023/06/23 02:04:18;;;;;;;3.75;2.58;;;19.10;99.90;;;;;;4991878;28;20179;-39
2023/06/23 02:06:47;;;;;;;3.03;2.72;;;19.00;99.90;;;;;;4984878;28;20215;-42
2023/06/23 02:09:20;;;;;;;3.28;2.97;;;19.10;99.90;;;;;;4989457;28;20176;-41
2023/06/23 02:11:47;;;;;;;2.75;2.55;;;19.10;99.90;;;;;;5008730;28;20188;-38
2023/06/23 02:14:14;;;;;;;2.83;2.63;;;19.20;99.90;;;;;;5006128;28;20188;-42
2023/06/23 02:16:42;;;;;;;3.17;2.85;;;19.20;99.90;;;;;;4988379;28;20239;-42
2023/06/23 02:19:09;;;;;;;3.10;2.70;;;19.20;99.90;;;;;;5005079;28;20206;-42
2023/06/23 02:21:35;;;;;;;3.25;2.95;;;19.20;99.90;;;;;;4990476;28;20179;-40
2023/06/23 02:24:06;;;;;;;2.60;2.40;;;19.20;99.90;;;;;;5009283;28;20214;-39
2023/06/23 02:26:37;;;;;;;5.10;2.83;;;19.20;99.90;;;;;;5009054;28;20199;-41
2023/06/23 02:29:05;;;;;;;3.08;2.80;;;19.20;99.90;;;;;;4995660;28;20183;-40
2023/06/23 02:31:31;;;;;;;2.80;2.50;;;19.10;99.90;;;;;;4986004;28;20230;-40
2023/06/23 02:33:57;;;;;;;2.90;2.70;;;19.10;99.90;;;;;;4988387;28;20184;-42
2023/06/23 02:36:26;;;;;;;2.92;2.60;;;19.10;99.90;;;;;;4990729;28;20199;-41
2023/06/23 02:38:55;;;;;;;2.53;1.90;;;19.00;99.90;;;;;;4982779;28;20208;-40
2023/06/23 02:41:26;;;;;;;3.55;2.22;;;19.00;99.90;;;;;;4995988;28;20190;-40
2023/06/23 02:43:57;;;;;;;2.17;2.00;;;18.90;99.90;;;;;;5010842;28;20564;-41
2023/06/23 02:46:28;;;;;;;1.85;1.75;;;18.90;99.90;;;;;;4987019;28;20246;-39
2023/06/23 02:49:02;;;;;;;2.65;2.30;;;18.90;99.90;;;;;;4991838;28;20222;-40
2023/06/23 02:51:29;;;;;;;2.58;2.25;;;18.90;99.90;;;;;;5005569;28;20187;-41
2023/06/23 02:54:00;;;;;;;3.28;2.22;;;18.90;99.90;;;;;;4993686;28;20187;-42
2023/06/23 02:56:29;;;;;;;2.90;2.60;;;18.80;99.90;;;;;;4994405;28;20184;-41
2023/06/23 02:59:08;;;;;;;2.70;2.50;;;18.90;99.90;;;;;;4979706;28;20230;-42
2023/06/23 03:01:37;;;;;;;3.88;2.75;;;18.80;99.90;;;;;;5002866;28;20186;-41
2023/06/23 03:04:03;;;;;;;3.28;2.88;;;18.90;99.90;;;;;;5005025;28;20180;-41
2023/06/23 03:06:36;;;;;;;3.78;2.65;;;18.90;99.90;;;;;;5007885;28;20183;-40
2023/06/23 03:09:03;;;;;;;4.25;3.00;;;18.80;99.90;;;;;;4977926;28;20188;-40
2023/06/23 03:11:30;;;;;;;5.28;3.63;;;18.80;99.90;;;;;;4982383;28;20187;-41
2023/06/23 03:13:58;;;;;;;3.40;3.10;;;18.80;99.90;;;;;;4988719;28;20328;-41
2023/06/23 03:16:32;;;;;;;3.78;3.45;;;18.80;99.90;;;;;;4993334;28;20180;-39
2023/06/23 03:19:07;;;;;;;4.15;3.55;;;18.80;99.90;;;;;;5017152;28;20287;-39
2023/06/23 03:21:37;;;;;;;4.75;3.72;;;18.80;99.90;;;;;;4991230;28;20195;-39
2023/06/23 03:24:07;;;;;;;4.97;4.10;;;18.70;99.90;;;;;;5021581;28;20188;-41
2023/06/23 03:26:39;;;;;;;4.95;3.97;;;18.80;99.90;;;;;;5013649;28;20209;-41
2023/06/23 03:29:08;;;;;;;5.88;3.80;;;18.70;99.90;;;;;;4999196;28;20183;-37
2023/06/23 03:31:37;;;;;;;4.95;4.45;;;18.70;99.90;;;;;;4992045;28;20551;-39
2023/06/23 03:34:04;;;;;;;5.35;4.20;;;18.60;99.90;;;;;;4986430;28;20187;-41
2023/06/23 03:36:31;;;;;;;6.38;4.53;;;18.60;99.90;;;;;;4999600;28;20180;-40
2023/06/23 03:39:04;;;;;;;6.47;4.70;;;18.60;99.90;;;;;;4994076;28;20204;-41
2023/06/23 03:41:32;;;;;;;6.38;4.57;;;18.50;99.90;;;;;;4982004;28;20221;-39
2023/06/23 03:44:13;;;;;;;6.00;4.90;;;18.40;99.90;;;;;;4983929;28;20674;-39
2023/06/23 03:46:50;;;;;;;6.07;4.93;;;18.40;99.90;;;;;;4988301;28;20203;-40
2023/06/23 03:49:18;;;;;;;5.35;4.82;;;18.30;99.90;;;;;;4980105;28;20184;-41
2023/06/23 03:51:47;;;;;;;5.72;5.10;;;18.30;99.90;;;;;;4986733;28;20183;-41
2023/06/23 03:54:15;;;;;;;6.07;5.13;;;18.30;99.90;;;;;;4999759;28;20180;-41
2023/06/23 03:56:43;;;;;;;6.65;5.47;;;18.30;99.90;;;;;;4989789;28;20255;-38
2023/06/23 03:59:12;;;;;;;5.95;5.35;;;18.30;99.90;;;;;;4998875;28;20207;-39
2023/06/23 04:01:39;;;;;;;10.57;5.85;;;18.20;99.90;;;;;;5008346;28;20172;-40
2023/06/23 04:04:07;;;;;;;8.52;6.05;;;18.20;99.90;;;;;;5003227;28;20180;-41
2023/06/23 04:06:36;;;;;;;7.95;5.22;;;18.20;99.90;;;;;;4991233;28;20207;-40
2023/06/23 04:09:05;;;;;;;5.93;4.82;;;18.20;99.90;;;;;;5008179;28;20263;-41
2023/06/23 04:11:31;;;;;;;6.45;4.88;;;18.20;99.90;;;;;;4986181;28;20183;-41
2023/06/23 04:13:59;;;;;;;9.30;5.60;;;18.20;99.90;;;;;;5002310;28;20190;-41
2023/06/23 04:16:27;;;;;;;7.40;5.35;;;18.20;99.90;;;;;;4992511;28;20186;-41
2023/06/23 04:18:55;;;;;;;7.75;4.60;;;18.20;99.90;;;;;;4990829;28;20199;-38
2023/06/23 04:21:22;;;;;;;7.68;4.95;;;18.20;99.90;;;;;;5014724;28;20240;-41
2023/06/23 04:24:14;;;;;;;7.43;5.05;;;18.20;99.90;;;;;;5014844;28;20186;-41
2023/06/23 04:26:44;;;;;;;7.40;5.57;;;18.20;99.90;;;;;;4993069;28;20242;-42
2023/06/23 04:29:11;;;;;;;6.13;5.53;;;18.20;99.90;;;;;;5000105;28;20187;-41
2023/06/23 04:31:40;;;;;;;8.52;5.88;;;18.20;99.90;;;;;;4991793;28;20270;-40
2023/06/23 04:34:06;;;;;;;6.53;5.13;;;18.20;99.90;;;;;;4989858;28;20678;-41
2023/06/23 04:36:43;;;;;;;8.32;5.97;;;18.30;99.90;;;;;;5005711;28;20207;-42
2023/06/23 04:39:19;;;;;;;7.45;5.78;;;18.20;99.90;;;;;;5006755;28;20214;-40
2023/06/23 04:41:49;;;;;;;5.80;5.22;;;18.30;99.90;;;;;;5002315;28;20210;-41
2023/06/23 04:44:18;;;;;;;7.00;6.07;;;18.30;99.90;;;;;;5000194;28;20182;-41
2023/06/23 04:46:47;;;;;;;7.70;6.18;;;18.30;99.90;;;;;;5014970;28;20261;-37
2023/06/23 04:49:18;;;;;;;9.45;6.20;;;18.30;99.90;;;;;;5015347;28;20237;-40
2023/06/23 04:51:48;;;;;;;9.90;6.35;;;18.30;99.90;;;;;;4989407;28;20187;-40
2023/06/23 04:54:41;;;;;;;8.10;6.70;;;18.20;99.90;;;;;;4999475;28;20187;-41
2023/06/23 04:57:15;;;;;;;10.52;7.75;;;18.30;99.90;;;;;;4994217;28;20676;-39
2023/06/23 04:59:43;;;;;;;9.40;8.27;;;18.20;99.90;;;;;;5004926;28;20287;-41
2023/06/23 05:02:11;;;;;;;10.75;9.57;;;18.20;99.90;;;;;;5020330;28;20251;-40
2023/06/23 05:04:40;;;;;;;14.15;9.00;;;18.20;99.90;;;;;;5026284;28;20186;-41
2023/06/23 05:07:08;;;;;;;11.15;10.07;;;18.30;99.90;;;;;;4982592;28;20216;-41
2023/06/23 05:09:36;;;;;;;13.50;10.40;;;18.30;99.90;;;;;;4981258;28;20227;-41
2023/06/23 05:12:03;;;;;;;13.02;9.95;;;18.30;99.90;;;;;;5004431;28;20184;-38
2023/06/23 05:14:33;;;;;;;14.23;11.00;;;18.30;99.90;;;;;;5002287;28;20300;-42
2023/06/23 05:17:02;;;;;;;13.50;10.85;;;18.30;99.90;;;;;;5020429;28;20199;-39
2023/06/23 05:19:31;;;;;;;13.00;10.63;;;18.40;99.90;;;;;;5013167;28;20305;-41
2023/06/23 05:21:59;;;;;;;12.77;10.77;;;18.40;99.90;;;;;;5003912;28;20179;-42
2023/06/23 05:24:28;;;;;;;14.65;10.40;;;18.50;99.90;;;;;;5011908;28;20186;-39
2023/06/23 05:26:59;;;;;;;12.73;10.57;;;18.60;99.90;;;;;;5004265;28;20664;-40
2023/06/23 05:29:27;;;;;;;11.93;9.73;;;18.60;99.90;;;;;;4988056;28;20176;-38
2023/06/23 05:31:55;;;;;;;12.07;9.70;;;18.70;99.90;;;;;;4990036;28;20275;-40
2023/06/23 05:34:25;;;;;;;11.93;9.63;;;18.60;99.90;;;;;;4985528;28;20180;-40
2023/06/23 05:36:57;;;;;;;11.32;10.13;;;18.70;99.90;;;;;;4986956;28;20230;-38
2023/06/23 05:39:28;;;;;;;13.38;10.77;;;18.60;99.90;;;;;;4968716;28;20246;-40
2023/06/23 05:41:55;;;;;;;14.38;12.13;;;18.60;99.90;;;;;;4987749;28;20279;-39
2023/06/23 05:44:21;;;;;;;15.45;11.60;;;18.60;99.90;;;;;;4993494;28;20178;-38
2023/06/23 05:46:53;;;;;;;14.27;11.70;;;18.60;99.90;;;;;;4992025;28;20196;-40
2023/06/23 05:49:22;;;;;;;14.10;12.60;;;18.60;99.90;;;;;;4993255;28;20183;-40
2023/06/23 05:51:59;;;;;;;13.48;12.07;;;18.70;99.90;;;;;;4985503;28;20215;-41
2023/06/23 05:54:29;;;;;;;15.18;11.82;;;18.70;99.90;;;;;;5004376;28;20183;-39
2023/06/23 05:57:00;;;;;;;13.68;12.00;;;18.70;99.90;;;;;;5002442;28;20217;-40
2023/06/23 05:59:45;;;;;;;13.50;11.65;;;18.80;99.90;;;;;;5003762;28;20265;-39
2023/06/23 06:02:21;;;;;;;13.90;12.20;;;19.00;99.90;;;;;;5007261;28;20202;-41
2023/06/23 06:04:55;;;;;;;16.33;13.75;;;19.10;99.90;;;;;;4996052;28;20176;-41
2023/06/23 06:07:22;;;;;;;15.65;14.05;;;19.10;99.90;;;;;;4996214;28;20222;-37
2023/06/23 06:09:49;;;;;;;20.80;14.38;;;19.00;99.90;;;;;;4992371;28;20191;-41
2023/06/23 06:12:16;;;;;;;19.48;15.43;;;19.10;99.90;;;;;;4992682;28;20180;-42
2023/06/23 06:14:43;;;;;;;15.85;14.15;;;19.10;99.90;;;;;;4994461;28;20183;-42
2023/06/23 06:17:09;;;;;;;17.08;15.13;;;19.10;99.90;;;;;;4992702;28;20199;-39
2023/06/23 06:19:37;;;;;;;17.20;14.07;;;19.10;99.90;;;;;;5000852;28;20207;-39
2023/06/23 06:22:06;;;;;;;17.05;15.23;;;19.20;99.90;;;;;;5010278;28;20188;-40
2023/06/23 06:24:33;;;;;;;17.10;15.30;;;19.30;99.90;;;;;;4988701;28;20183;-42
2023/06/23 06:27:02;;;;;;;18.17;16.13;;;19.40;99.90;;;;;;4991590;28;20237;-39
2023/06/23 06:29:29;;;;;;;18.17;16.27;;;19.40;99.90;;;;;;4986184;28;20180;-37
2023/06/23 06:31:57;;;;;;;18.00;15.65;;;19.40;99.90;;;;;;4989639;28;20184;-41
2023/06/23 06:34:25;;;;;;;18.25;15.40;;;19.50;99.90;;;;;;5001029;28;20230;-39
2023/06/23 06:36:54;;;;;;;16.65;14.75;;;19.50;99.90;;;;;;4988820;28;20207;-41
2023/06/23 06:39:22;;;;;;;18.17;16.23;;;19.50;99.90;;;;;;4988949;28;20212;-40
2023/06/23 06:41:51;;;;;;;20.67;16.90;;;19.60;99.90;;;;;;5008517;28;20183;-39
2023/06/23 06:44:17;;;;;;;18.67;16.67;;;19.50;99.90;;;;;;4999860;28;20183;-37
2023/06/23 06:46:44;;;;;;;18.88;16.88;;;19.40;99.90;;;;;;4983674;28;20212;-39
2023/06/23 06:49:12;;;;;;;19.23;17.10;;;19.50;99.90;;;;;;5006279;28;20191;-40
2023/06/23 06:51:40;;;;;;;20.30;17.65;;;19.50;99.90;;;;;;4984867;28;20192;-42
2023/06/23 06:54:06;;;;;;;19.63;17.63;;;19.70;99.90;;;;;;5005730;28;20191;-39
2023/06/23 06:56:34;;;;;;;20.35;18.15;;;19.80;99.90;;;;;;4992252;28;20204;-37
2023/06/23 06:59:00;;;;;;;21.30;19.02;;;19.80;99.90;;;;;;4992835;28;20218;-41
2023/06/23 07:01:27;;;;;;;22.05;18.55;;;19.90;99.90;;;;;;4986643;28;20267;-41
2023/06/23 07:03:55;;;;;;;23.58;21.17;;;20.10;99.90;;;;;;4989962;28;20181;-41
2023/06/23 07:06:21;;;;;;;22.95;19.08;;;20.30;99.90;;;;;;4995705;28;20199;-40
2023/06/23 07:08:47;;;;;;;21.90;19.58;;;20.40;99.90;;;;;;5008833;28;20192;-40
2023/06/23 07:11:13;;;;;;;22.30;20.08;;;20.30;99.90;;;;;;4991299;28;20406;-40
2023/06/23 07:13:39;;;;;;;22.65;20.10;;;20.30;99.90;;;;;;4985387;28;20195;-40
2023/06/23 07:16:05;;;;;;;21.77;19.58;;;20.30;99.90;;;;;;4990729;28;20228;-40
2023/06/23 07:18:31;;;;;;;21.45;19.25;;;20.40;99.90;;;;;;4993834;28;20273;-41
2023/06/23 07:20:57;;;;;;;22.67;19.33;;;20.40;99.90;;;;;;5007471;28;20195;-37
2023/06/23 07:23:23;;;;;;;21.52;18.63;;;20.40;99.90;;;;;;4994131;28;20293;-41
2023/06/23 07:25:49;;;;;;;21.38;19.20;;;20.40;99.90;;;;;;4991733;28;20167;-40
2023/06/23 07:28:15;;;;;;;20.73;18.55;;;20.50;99.90;;;;;;4996164;28;20226;-37
2023/06/23 07:30:41;;;;;;;20.40;17.70;;;20.80;99.90;;;;;;4988346;28;20199;-41
2023/06/23 07:33:06;;;;;;;18.67;16.77;;;21.00;99.90;;;;;;4994126;28;20237;-40
2023/06/23 07:35:33;;;;;;;19.25;17.25;;;21.20;99.90;;;;;;5020291;28;20183;-43
2023/06/23 07:37:59;;;;;;;18.20;16.27;;;21.20;99.90;;;;;;5009259;28;20215;-40
2023/06/23 07:40:25;;;;;;;18.75;16.85;;;21.20;99.90;;;;;;5007612;28;20190;-40
2023/06/23 07:42:52;;;;;;;18.30;16.27;;;21.20;99.90;;;;;;5015011;28;20266;-41
2023/06/23 07:45:18;;;;;;;19.10;17.10;;;21.10;99.90;;;;;;4992638;28;20179;-41
2023/06/23 07:47:43;;;;;;;19.58;17.13;;;21.30;99.90;;;;;;5008190;28;20214;-39
2023/06/23 07:50:10;;;;;;;20.38;17.50;;;21.40;99.90;;;;;;4999290;28;20188;-42
2023/06/23 07:52:37;;;;;;;19.13;17.00;;;21.30;99.90;;;;;;4990592;28;20259;-41
2023/06/23 07:55:02;;;;;;;18.85;16.85;;;21.10;99.90;;;;;;5001213;28;20299;-42
2023/06/23 07:57:28;;;;;;;16.95;15.25;;;21.00;99.90;;;;;;4977840;28;20203;-41
2023/06/23 07:59:54;;;;;;;18.17;15.35;;;21.00;99.90;;;;;;4992630;28;20210;-41
2023/06/23 08:02:20;;;;;;;19.42;16.10;;;21.00;99.90;;;;;;5026444;28;20183;-41
2023/06/23 08:04:46;;;;;;;15.65;13.95;;;20.80;99.90;;;;;;5007977;28;20238;-39
2023/06/23 08:07:11;;;;;;;16.42;13.85;;;20.80;99.90;;;;;;4995027;28;20246;-39
2023/06/23 08:09:37;;;;;;;20.17;13.05;;;21.00;99.90;;;;;;5009351;28;20197;-40
2023/06/23 08:12:03;;;;;;;15.65;13.40;;;21.30;99.90;;;;;;4998881;28;20196;-36
2023/06/23 08:14:29;;;;;;;13.05;11.65;;;21.60;99.90;;;;;;5003394;28;20190;-41
2023/06/23 08:16:55;;;;;;;13.60;12.20;;;21.90;99.90;;;;;;4982251;28;20204;-38
2023/06/23 08:19:24;;;;;;;12.35;10.82;;;22.00;99.90;;;;;;4996533;28;20296;-40
2023/06/23 08:21:52;;;;;;;11.57;10.38;;;22.20;99.90;;;;;;4975402;28;20258;-41
2023/06/23 08:24:19;;;;;;;10.52;9.52;;;22.20;99.90;;;;;;4993294;28;20180;-41
2023/06/23 08:26:45;;;;;;;13.90;11.27;;;22.40;99.90;;;;;;4995380;28;20295;-42
2023/06/23 08:29:12;;;;;;;11.18;10.02;;;22.50;99.90;;;;;;4988430;28;20187;-41
2023/06/23 08:31:40;;;;;;;11.73;10.13;;;22.60;99.90;;;;;;4981345;28;20180;-43
2023/06/23 08:34:07;;;;;;;12.80;10.30;;;22.80;99.90;;;;;;5006410;28;20180;-42
2023/06/23 08:36:32;;;;;;;13.73;10.90;;;22.90;99.90;;;;;;4992249;28;20203;-42
2023/06/23 08:39:00;;;;;;;11.07;9.98;;;23.00;99.90;;;;;;5005901;28;20206;-42
2023/06/23 08:41:32;;;;;;;11.65;9.52;;;23.00;99.90;;;;;;5007798;28;20176;-42
2023/06/23 08:44:04;;;;;;;8.90;7.82;;;23.20;99.90;;;;;;5001598;28;20202;-43
2023/06/23 08:46:33;;;;;;;8.55;7.65;;;23.40;99.90;;;;;;4992528;28;20171;-42
2023/06/23 08:49:05;;;;;;;10.90;7.97;;;23.60;99.90;;;;;;4989970;28;20176;-43
2023/06/23 08:51:33;;;;;;;10.27;7.78;;;23.30;99.90;;;;;;5005646;28;20215;-43
2023/06/23 08:54:00;;;;;;;10.93;8.27;;;23.20;99.90;;;;;;4990099;28;20259;-43
2023/06/23 08:56:26;;;;;;;9.27;7.72;;;23.20;99.90;;;;;;5010167;28;20188;-43
2023/06/23 08:58:53;;;;;;;7.88;7.07;;;23.30;99.90;;;;;;5009850;28;20207;-42
2023/06/23 09:01:28;;;;;;;7.65;6.65;;;23.30;99.90;;;;;;5008950;28;20206;-42
2023/06/23 09:03:54;;;;;;;6.90;6.20;;;23.50;99.90;;;;;;5003540;28;20215;-43
2023/06/23 09:06:20;;;;;;;6.90;5.60;;;23.60;99.90;;;;;;5011945;28;20219;-42
2023/06/23 09:08:46;;;;;;;7.35;5.60;;;23.80;99.90;;;;;;4987160;28;20186;-41
2023/06/23 09:11:16;;;;;;;8.13;7.32;;;24.10;99.90;;;;;;5020154;28;20196;-42
2023/06/23 09:13:47;;;;;;;11.00;6.95;;;24.20;99.90;;;;;;5018742;28;20198;-43
2023/06/23 09:16:16;;;;;;;6.18;5.25;;;24.10;99.90;;;;;;4995452;28;20223;-43
2023/06/23 09:18:46;;;;;;;6.85;6.10;;;24.30;99.90;;;;;;4993194;28;20242;-42
2023/06/23 09:21:12;;;;;;;7.07;6.32;;;24.40;99.90;;;;;;4988453;28;20171;-42
2023/06/23 09:23:39;;;;;;;7.35;6.55;;;24.30;99.90;;;;;;4999776;28;20183;-41
2023/06/23 09:26:06;;;;;;;6.55;5.85;;;24.30;99.90;;;;;;4984122;28;20215;-42
2023/06/23 09:28:38;;;;;;;7.18;5.72;;;24.40;99.90;;;;;;4988328;28;20230;-43
2023/06/23 09:31:12;;;;;;;6.35;5.63;;;24.70;99.90;;;;;;4999780;28;20176;-42
2023/06/23 09:33:49;;;;;;;6.55;5.60;;;24.70;99.90;;;;;;5000942;28;20187;-44
2023/06/23 09:36:16;;;;;;;6.35;5.75;;;24.90;99.90;;;;;;4996037;28;20189;-43
2023/06/23 09:38:52;;;;;;;5.30;4.57;;;25.10;99.90;;;;;;5007345;28;20203;-41
2023/06/23 09:41:26;;;;;;;6.63;5.47;;;25.20;99.90;;;;;;4988473;28;20188;-43
2023/06/23 09:43:53;;;;;;;6.57;4.95;;;25.20;99.90;;;;;;4992572;28;20214;-43
2023/06/23 09:46:22;;;;;;;6.50;5.47;;;25.30;99.90;;;;;;5008790;28;20271;-43
2023/06/23 09:48:52;;;;;;;6.65;5.50;;;25.10;99.90;;;;;;4990243;28;20188;-42
2023/06/23 09:51:20;;;;;;;6.53;5.68;;;25.10;99.90;;;;;;4989618;28;20191;-42
2023/06/23 09:53:47;;;;;;;6.82;6.13;;;25.00;99.90;;;;;;4995306;28;20238;-43
2023/06/23 09:56:19;;;;;;;6.82;5.30;;;24.80;99.90;;;;;;5008428;28;20180;-42
2023/06/23 09:58:47;;;;;;;6.20;5.25;;;24.80;99.90;;;;;;4992070;28;20230;-42
2023/06/23 10:01:15;;;;;;;8.13;5.20;;;24.80;99.90;;;;;;5013042;28;20176;-42
2023/06/23 10:03:55;;;;;;;5.00;4.50;;;25.00;99.90;;;;;;5006325;28;20180;-42
2023/06/23 10:06:22;;;;;;;4.95;4.43;;;25.10;99.90;;;;;;5005932;28;20237;-41
2023/06/23 10:08:59;;;;;;;4.95;4.40;;;25.50;99.90;;;;;;5002693;28;20217;-42
2023/06/23 10:11:31;;;;;;;5.57;5.07;;;25.80;99.90;;;;;;5009461;28;20187;-43
2023/06/23 10:14:00;;;;;;;7.15;4.90;;;25.80;99.90;;;;;;5006953;28;20703;-43
2023/06/23 10:16:27;;;;;;;5.30;4.78;;;25.80;99.90;;;;;;5001172;28;20195;-41
2023/06/23 10:18:53;;;;;;;5.15;4.65;;;25.70;99.90;;;;;;4998921;28;20235;-42
2023/06/23 10:21:21;;;;;;;6.82;4.50;;;25.60;99.90;;;;;;4998708;28;20243;-42
2023/06/23 10:24:05;;;;;;;5.53;4.93;;;25.60;99.90;;;;;;5008294;28;20211;-42
2023/06/23 10:26:35;;;;;;;4.75;4.35;;;25.60;99.90;;;;;;4998116;28;20562;-42
2023/06/23 10:29:06;;;;;;;5.22;4.35;;;25.60;99.90;;;;;;4978718;28;20183;-40
2023/06/23 10:31:37;;;;;;;4.70;4.30;;;25.70;99.90;;;;;;5010503;28;20186;-42
2023/06/23 10:34:06;;;;;;;5.82;4.40;;;25.90;99.90;;;;;;5011353;28;20187;-42
2023/06/23 10:36:38;;;;;;;4.50;4.05;;;26.00;99.90;;;;;;4994857;28;20187;-43
2023/06/23 10:39:06;;;;;;;4.88;4.25;;;26.10;99.90;;;;;;5008553;28;20217;-41
2023/06/23 10:41:34;;;;;;;5.28;3.97;;;26.00;99.90;;;;;;4992562;28;20175;-41
2023/06/23 10:44:02;;;;;;;5.68;4.82;;;26.00;99.90;;;;;;4978218;28;20184;-43
2023/06/23 10:46:29;;;;;;;5.00;4.47;;;26.20;99.90;;;;;;4993462;28;20175;-40
2023/06/23 10:48:58;;;;;;;5.95;4.40;;;26.30;99.90;;;;;;5003972;28;20187;-41
2023/06/23 10:51:30;;;;;;;4.65;4.22;;;26.10;99.90;;;;;;5005196;28;20225;-42
2023/06/23 10:54:05;;;;;;;5.32;4.28;;;26.20;99.90;;;;;;4994388;28;20724;-41
2023/06/23 10:56:43;;;;;;;4.75;3.75;;;25.80;99.90;;;;;;4987877;28;20214;-42
2023/06/23 10:59:23;;;;;;;4.35;3.95;;;25.90;99.90;;;;;;5021931;28;20225;-42
2023/06/23 11:02:07;;;;;;;5.97;4.50;;;26.30;99.90;;;;;;5008401;28;20183;-40
2023/06/23 11:04:41;;;;;;;5.20;4.15;;;26.40;99.90;;;;;;5012336;28;20644;-43
2023/06/23 11:07:12;;;;;;;4.68;3.88;;;26.20;99.90;;;;;;4991202;28;20267;-42
2023/06/23 11:09:54;;;;;;;4.88;3.85;;;26.00;99.90;;;;;;5010397;28;20184;-42
2023/06/23 11:12:42;;;;;;;3.90;3.33;;;26.00;99.90;;;;;;4990319;28;20282;-42
2023/06/23 11:15:24;;;;;;;4.40;4.00;;;26.40;99.90;;;;;;5007092;28;20264;-40
2023/06/23 11:18:04;;;;;;;5.43;4.38;;;26.70;99.90;;;;;;5003566;28;20223;-43
2023/06/23 11:20:50;;;;;;;4.88;4.20;;;26.70;99.90;;;;;;4988483;28;20175;-41
2023/06/23 11:23:16;;;;;;;4.40;4.00;;;26.40;99.90;;;;;;5014210;28;20228;-41
2023/06/23 11:25:47;;;;;;;4.60;4.20;;;26.70;99.90;;;;;;5007601;28;20191;-41
2023/06/23 11:28:33;;;;;;;4.93;4.30;;;26.90;99.90;;;;;;4989287;28;20195;-43
2023/06/23 11:31:05;;;;;;;4.45;3.67;;;26.90;99.90;;;;;;4990579;28;20190;-42
2023/06/23 11:33:38;;;;;;;4.50;3.88;;;27.10;99.90;;;;;;4993730;28;20184;-41
2023/06/23 11:36:13;;;;;;;4.25;3.85;;;27.10;99.90;;;;;;4983722;28;20280;-42
2023/06/23 11:38:41;;;;;;;4.80;3.88;;;27.30;99.90;;;;;;5002609;28;20196;-42
2023/06/23 11:41:07;;;;;;;4.72;3.92;;;27.30;99.90;;;;;;4999656;28;20184;-42
2023/06/23 11:43:35;;;;;;;5.05;4.40;;;27.40;99.90;;;;;;5001087;28;20267;-41
2023/06/23 11:46:14;;;;;;;5.50;5.00;;;27.10;99.90;;;;;;4989927;28;20179;-42
2023/06/23 11:48:41;;;;;;;4.80;4.30;;;26.80;99.90;;;;;;4993091;28;20187;-43
2023/06/23 11:51:11;;;;;;;4.45;3.85;;;26.80;99.90;;;;;;4991177;28;20191;-43
2023/06/23 11:53:40;;;;;;;3.92;3.60;;;27.00;99.90;;;;;;4985605;28;20214;-43
2023/06/23 11:56:06;;;;;;;4.30;3.90;;;27.00;99.90;;;;;;4990755;28;20291;-43
2023/06/23 11:58:34;;;;;;;4.68;3.72;;;27.20;99.90;;;;;;4984862;28;20203;-42
2023/06/23 12:01:01;;;;;;;4.93;3.72;;;27.30;99.90;;;;;;4987552;28;20187;-41
2023/06/23 12:03:29;;;;;;;6.68;4.15;;;27.60;99.90;;;;;;4999278;28;20279;-42
2023/06/23 12:05:55;;;;;;;4.57;4.18;;;27.80;99.90;;;;;;5002682;28;20176;-43
2023/06/23 12:08:26;;;;;;;5.13;4.10;;;27.80;99.90;;;;;;4999584;28;20204;-42
2023/06/23 12:10:53;;;;;;;5.22;3.60;;;27.90;99.90;;;;;;4991296;28;20183;-43
2023/06/23 12:13:22;;;;;;;5.47;3.97;;;28.00;99.90;;;;;;5017850;28;20191;-43
2023/06/23 12:15:48;;;;;;;4.35;3.95;;;27.70;99.90;;;;;;4998242;28;20183;-43
2023/06/23 12:18:14;;;;;;;4.30;3.80;;;27.60;99.90;;;;;;5005375;28;20211;-43
2023/06/23 12:20:43;;;;;;;4.40;4.00;;;27.70;99.90;;;;;;4991966;28;20202;-42
2023/06/23 12:23:11;;;;;;;4.88;3.75;;;27.80;99.90;;;;;;4996467;28;20266;-43
2023/06/23 12:25:47;;;;;;;5.25;4.47;;;28.00;99.90;;;;;;4997403;28;20176;-43
2023/06/23 12:28:20;;;;;;;4.25;3.80;;;28.30;99.90;;;;;;4986107;28;20215;-42
2023/06/23 12:30:50;;;;;;;4.40;4.00;;;28.60;99.90;;;;;;5014333;28;20179;-41
2023/06/23 12:33:27;;;;;;;4.50;3.85;;;28.70;99.90;;;;;;5005199;28;20680;-44
2023/06/23 12:36:16;;;;;;;5.22;4.22;;;28.80;99.90;;;;;;4992197;28;20191;-42
2023/06/23 12:38:56;;;;;;;4.88;4.00;;;28.40;99.90;;;;;;5001920;28;20207;-43
2023/06/23 12:41:26;;;;;;;4.50;4.10;;;28.50;99.90;;;;;;5015908;28;20263;-41
2023/06/23 12:44:00;;;;;;;6.10;4.25;;;28.60;99.90;;;;;;4988982;28;20186;-43
2023/06/23 12:46:32;;;;;;;5.13;3.85;;;28.80;99.90;;;;;;5000359;28;20190;-43
2023/06/23 12:48:58;;;;;;;4.28;3.97;;;28.90;99.90;;;;;;5011844;28;20199;-41
2023/06/23 12:51:36;;;;;;;4.20;3.90;;;29.30;99.90;;;;;;5000878;28;20187;-42
2023/06/23 12:54:03;;;;;;;4.60;4.20;;;29.40;99.90;;;;;;5012932;28;20245;-43